Time;durP1;ratioP1;P1;durP2;ratioP2;P2;SDS_P1;SDS_P2;PMS_P1;PMS_P2;Temp;Humidity;BMP_temperature;BMP_pressure;BME280_temperature;BME280_humidity;BME280_pressure;Samples;Min_cycle;Max_cycle;Signal;HPM_P1;HPM_P2
2021/12/23 00:01:39;;;;;;;7.57;5.90;;;2.40;76.70;;;;;;4995509;28;20038;-91
2021/12/23 00:05:08;;;;;;;7.67;5.53;;;2.40;76.70;;;;;;4961388;28;20039;-90
2021/12/23 00:12:31;;;;;;;7.18;5.40;;;2.50;76.80;;;;;;4916792;29;20195;-92
2021/12/23 00:19:23;;;;;;;7.03;5.28;;;2.40;76.70;;;;;;5051149;28;20037;-89
2021/12/23 00:25:27;;;;;;;;;;;2.50;76.80;;;;;;5037756;28;20114;-90
2021/12/23 00:35:33;;;;;;;7.30;5.10;;;2.50;76.80;;;;;;5049219;28;20048;-92
2021/12/23 00:38:35;;;;;;;7.63;5.63;;;2.50;76.90;;;;;;5037130;28;20058;-90
2021/12/23 00:41:44;;;;;;;;;;;;;;;;;;;;;
2021/12/23 00:44:34;;;;;;;;;;;;;;;;;;;;;
2021/12/23 00:47:40;;;;;;;;;;;;;;;;;;;;;
2021/12/23 00:53:45;;;;;;;8.60;6.35;;;2.60;76.80;;;;;;5034209;28;20020;-91
2021/12/23 00:56:53;;;;;;;7.63;5.07;;;2.60;76.90;;;;;;5061678;28;20037;-93
2021/12/23 01:00:08;;;;;;;;;;;;;;;;;;;;;
2021/12/23 01:13:36;;;;;;;7.32;5.45;;;2.60;76.90;;;;;;5026488;28;20398;-89
2021/12/23 01:20:29;;;;;;;;;;;;;;;;;;;;;
2021/12/23 01:23:44;;;;;;;;;;;;;;;;;;;;;
2021/12/23 01:26:42;;;;;;;7.22;5.10;;;2.70;77.00;;;;;;5021753;28;20037;-89
2021/12/23 01:30:01;;;;;;;7.85;5.57;;;2.70;77.00;;;;;;5001868;28;20040;-88
2021/12/23 01:33:29;;;;;;;;;;;;;;;;;;;;;
2021/12/23 01:40:44;;;;;;;;;;;;;;;;;;;;;
2021/12/23 01:51:14;;;;;;;7.93;5.63;;;2.70;77.00;;;;;;4908310;29;20039;-90
2021/12/23 01:58:19;;;;;;;;;;;;;;;;;;;;;
2021/12/23 02:04:49;;;;;;;;;;;;;;;;;;;;;
2021/12/23 02:07:39;;;;;;;7.55;5.53;;;2.70;77.00;;;;;;5015259;28;19959;-90
2021/12/23 02:11:30;;;;;;;;;;;;;;;;;;;;;
2021/12/23 02:17:45;;;;;;;8.35;5.93;;;2.70;77.10;;;;;;5045652;28;20053;-89
2021/12/23 02:20:42;;;;;;;7.88;5.55;;;2.70;77.10;;;;;;5039108;28;20063;-89
2021/12/23 02:24:02;;;;;;;8.80;6.18;;;2.80;77.10;;;;;;5013536;28;20041;-90
2021/12/23 02:27:32;;;;;;;;;;;;;;;;;;;;;
2021/12/23 02:30:52;;;;;;;;;;;;;;;;;;;;;
2021/12/23 02:33:57;;;;;;;6.90;5.07;;;2.80;77.10;;;;;;5043965;28;20112;-89
2021/12/23 02:37:14;;;;;;;;;;;;;;;;;;;;;
2021/12/23 02:40:53;;;;;;;;;;;;;;;;;;;;;
2021/12/23 02:44:08;;;;;;;;;;;;;;;;;;;;;
2021/12/23 02:47:00;;;;;;;7.93;5.72;;;2.80;77.10;;;;;;5039816;28;20029;-89
2021/12/23 02:49:57;;;;;;;;;;;;;;;;;;;;;
2021/12/23 03:00:36;;;;;;;;;;;;;;;;;;;;;
2021/12/23 03:04:05;;;;;;;;;;;;;;;;;;;;;
2021/12/23 03:07:28;;;;;;;7.95;5.78;;;2.90;77.10;;;;;;4939162;29;20054;-91
2021/12/23 03:10:57;;;;;;;8.38;5.72;;;2.90;77.10;;;;;;4928646;29;20138;-90
2021/12/23 03:14:04;;;;;;;;;;;;;;;;;;;;;
2021/12/23 03:21:22;;;;;;;8.13;5.85;;;2.80;77.10;;;;;;4958086;28;20086;-90
2021/12/23 03:28:19;;;;;;;;;;;;;;;;;;;;;
2021/12/23 03:31:41;;;;;;;7.63;5.60;;;2.80;77.10;;;;;;5036376;28;20048;-92
2021/12/23 03:41:15;;;;;;;10.40;6.22;;;2.80;77.10;;;;;;5011465;28;20037;-91
2021/12/23 03:57:35;;;;;;;7.60;5.88;;;2.80;77.00;;;;;;5035454;28;20121;-89
2021/12/23 04:00:40;;;;;;;;;;;;;;;;;;;;;
2021/12/23 04:03:43;;;;;;;8.40;6.65;;;2.80;77.00;;;;;;5036526;28;20041;-89
2021/12/23 04:06:51;;;;;;;;;;;;;;;;;;;;;
2021/12/23 04:16:19;;;;;;;8.57;6.00;;;2.80;76.90;;;;;;5017777;28;20485;-90
2021/12/23 04:19:32;;;;;;;8.93;6.70;;;2.80;76.80;;;;;;4993480;28;20042;-90
2021/12/23 04:22:19;;;;;;;;;;;2.90;77.00;;;;;;4988597;28;20041;-90
2021/12/23 04:28:45;;;;;;;8.02;5.82;;;2.80;76.90;;;;;;4988334;28;20128;-90
2021/12/23 04:32:28;;;;;;;;;;;;;;;;;;;;;
2021/12/23 04:35:36;;;;;;;8.45;5.90;;;2.80;77.00;;;;;;5035482;28;20022;-88
2021/12/23 04:39:11;;;;;;;8.02;6.13;;;2.80;77.00;;;;;;5032646;28;20042;-90
2021/12/23 04:50:18;;;;;;;8.40;5.78;;;2.80;76.90;;;;;;5033118;28;20536;-90
2021/12/23 04:53:07;;;;;;;;;;;;;;;;;;;;;
2021/12/23 04:59:30;;;;;;;;;;;;;;;;;;;;;
2021/12/23 05:02:23;;;;;;;8.52;6.10;;;2.80;77.00;;;;;;5008703;28;20021;-89
2021/12/23 05:05:44;;;;;;;8.77;6.38;;;2.80;76.90;;;;;;5009760;28;20124;-91
2021/12/23 05:08:48;;;;;;;8.23;5.57;;;2.90;77.00;;;;;;5020292;28;20033;-90
2021/12/23 05:11:54;;;;;;;9.02;6.20;;;2.80;76.90;;;;;;5022709;28;20136;-90
2021/12/23 05:14:56;;;;;;;9.55;6.47;;;2.80;76.90;;;;;;5007798;28;20130;-91
2021/12/23 05:22:04;;;;;;;9.02;6.45;;;2.80;76.90;;;;;;5035189;28;20465;-90
2021/12/23 05:26:05;;;;;;;;;;;;;;;;;;;;;
2021/12/23 05:41:32;;;;;;;;;;;;;;;;;;;;;
2021/12/23 05:48:32;;;;;;;8.52;6.18;;;2.80;77.20;;;;;;4964034;28;20119;-88
2021/12/23 05:51:17;;;;;;;8.18;6.70;;;2.80;77.10;;;;;;4994345;28;20045;-89
2021/12/23 05:54:29;;;;;;;8.35;5.88;;;2.80;77.20;;;;;;5019941;28;20042;-87
2021/12/23 06:01:05;;;;;;;;;;;;;;;;;;;;;
2021/12/23 06:03:41;;;;;;;8.60;6.93;;;2.80;77.10;;;;;;5023018;28;20054;-88
2021/12/23 06:07:11;;;;;;;;;;;;;;;;;;;;;
2021/12/23 06:27:44;;;;;;;8.07;6.05;;;2.80;77.30;;;;;;4840314;29;20165;-91
2021/12/23 06:31:44;;;;;;;8.70;6.43;;;2.80;77.20;;;;;;4889550;29;20088;-88
2021/12/23 06:34:50;;;;;;;;;;;;;;;;;;;;;
2021/12/23 06:37:37;;;;;;;8.95;6.15;;;2.90;77.30;;;;;;4883451;29;20051;-89
2021/12/23 06:40:39;;;;;;;9.82;6.68;;;2.90;77.30;;;;;;4903139;29;20067;-89
2021/12/23 06:43:08;;;;;;;8.98;6.90;;;2.90;77.30;;;;;;4917251;29;20050;-88
2021/12/23 06:45:55;;;;;;;9.70;6.60;;;2.90;77.10;;;;;;4918556;29;20545;-88
2021/12/23 06:49:11;;;;;;;8.88;6.28;;;2.90;77.10;;;;;;5021228;28;20048;-88
2021/12/23 06:51:53;;;;;;;9.82;6.88;;;2.90;77.10;;;;;;5036201;28;20042;-87
2021/12/23 06:54:36;;;;;;;9.70;6.60;;;2.90;77.00;;;;;;5019880;28;20029;-86
2021/12/23 07:00:47;;;;;;;;;;;;;;;;;;;;;
2021/12/23 07:07:09;;;;;;;10.23;6.75;;;3.00;77.20;;;;;;5036404;28;20030;-86
2021/12/23 07:10:24;;;;;;;10.23;7.68;;;2.90;77.00;;;;;;5017644;28;20124;-86
2021/12/23 07:13:11;;;;;;;10.10;6.85;;;3.00;77.20;;;;;;5018729;28;20177;-86
2021/12/23 07:16:02;;;;;;;9.50;6.82;;;3.00;77.10;;;;;;5035910;28;20486;-86
2021/12/23 07:19:05;;;;;;;11.00;7.27;;;3.00;77.10;;;;;;5003409;28;20497;-85
2021/12/23 07:21:51;;;;;;;10.70;6.72;;;3.00;77.10;;;;;;5024240;28;20284;-85
2021/12/23 07:24:41;;;;;;;10.32;7.10;;;3.00;77.10;;;;;;5002497;28;20033;-85
2021/12/23 07:27:15;;;;;;;11.45;7.80;;;3.00;77.20;;;;;;5017866;28;20045;-85
2021/12/23 07:30:33;;;;;;;9.60;7.15;;;3.00;77.10;;;;;;5033542;28;20041;-87
2021/12/23 07:33:21;;;;;;;10.82;6.90;;;3.00;77.10;;;;;;5016852;28;20095;-86
2021/12/23 07:36:13;;;;;;;11.07;7.53;;;3.00;77.10;;;;;;5019665;28;20458;-85
2021/12/23 07:39:34;;;;;;;9.52;6.68;;;3.00;77.10;;;;;;5006601;28;20049;-86
2021/12/23 07:42:30;;;;;;;10.57;6.97;;;3.00;77.70;;;;;;5027020;28;20037;-84
2021/12/23 07:45:16;;;;;;;9.73;6.90;;;3.00;77.10;;;;;;5035496;28;20067;-83
2021/12/23 07:48:14;;;;;;;10.65;7.63;;;3.00;77.20;;;;;;5034109;28;20121;-85
2021/12/23 07:50:42;;;;;;;9.68;7.10;;;3.00;77.10;;;;;;5002470;28;20052;-85
2021/12/23 07:53:36;;;;;;;10.18;7.38;;;3.10;77.20;;;;;;5021692;28;20033;-85
2021/12/23 07:56:34;;;;;;;12.32;8.27;;;3.10;77.20;;;;;;5006990;28;20038;-85
2021/12/23 07:59:03;;;;;;;10.00;7.28;;;3.00;77.20;;;;;;5017162;28;20029;-85
2021/12/23 08:02:17;;;;;;;10.52;7.25;;;3.10;77.10;;;;;;5021304;28;20040;-84
2021/12/23 08:05:02;;;;;;;9.45;6.85;;;3.10;77.10;;;;;;5012272;28;20116;-85
2021/12/23 08:07:55;;;;;;;10.73;7.78;;;3.00;77.10;;;;;;4972667;28;20038;-85
2021/12/23 08:10:25;;;;;;;10.43;7.55;;;3.10;77.20;;;;;;5001628;28;20026;-85
2021/12/23 08:12:57;;;;;;;10.13;7.70;;;3.10;77.20;;;;;;5022537;28;20131;-86
2021/12/23 08:15:24;;;;;;;10.40;7.15;;;3.10;77.30;;;;;;5038032;28;20033;-87
2021/12/23 08:17:51;;;;;;;10.45;7.40;;;3.10;77.20;;;;;;5020899;28;20033;-85
2021/12/23 08:20:17;;;;;;;10.35;7.32;;;3.10;77.10;;;;;;5005128;28;20044;-86
2021/12/23 08:22:43;;;;;;;10.20;7.43;;;3.10;77.10;;;;;;5021499;28;20021;-85
2021/12/23 08:25:10;;;;;;;11.05;7.88;;;3.20;77.10;;;;;;5020574;28;20025;-85
2021/12/23 08:27:40;;;;;;;11.23;7.40;;;3.20;77.10;;;;;;5022456;28;20025;-86
2021/12/23 08:30:13;;;;;;;10.77;7.43;;;3.20;77.10;;;;;;5021529;28;20087;-86
2021/12/23 08:33:05;;;;;;;10.18;7.57;;;3.20;77.10;;;;;;5037853;28;20115;-87
2021/12/23 08:35:55;;;;;;;11.52;7.60;;;3.20;77.20;;;;;;5022826;28;20094;-87
2021/12/23 08:38:21;;;;;;;10.00;7.10;;;3.20;77.10;;;;;;5037684;28;20029;-87
2021/12/23 08:41:08;;;;;;;10.65;7.47;;;3.20;77.10;;;;;;5043785;28;20084;-86
2021/12/23 08:43:36;;;;;;;9.85;6.88;;;3.30;77.20;;;;;;5070190;28;20465;-85
2021/12/23 08:46:05;;;;;;;12.00;8.27;;;3.20;77.00;;;;;;5054159;28;20076;-85
2021/12/23 08:48:34;;;;;;;10.13;7.45;;;3.20;77.10;;;;;;5022126;28;20087;-85
2021/12/23 08:51:05;;;;;;;10.70;7.25;;;3.20;77.10;;;;;;5036761;28;20029;-85
2021/12/23 08:53:34;;;;;;;11.32;7.95;;;3.20;77.10;;;;;;5037268;28;20028;-86
2021/12/23 08:55:59;;;;;;;9.70;6.88;;;3.20;77.10;;;;;;5037362;28;20028;-84
2021/12/23 08:58:25;;;;;;;11.00;7.82;;;3.20;77.10;;;;;;5036934;28;20037;-86
2021/12/23 09:00:51;;;;;;;11.45;8.35;;;3.30;77.20;;;;;;5020582;28;20033;-86
2021/12/23 09:03:18;;;;;;;11.95;8.60;;;3.30;77.20;;;;;;5037200;28;20037;-85
2021/12/23 09:05:49;;;;;;;10.50;8.00;;;3.30;77.20;;;;;;5037511;28;20067;-84
2021/12/23 09:08:18;;;;;;;9.95;7.25;;;3.30;77.20;;;;;;5038394;28;20500;-85
2021/12/23 09:10:49;;;;;;;11.10;8.25;;;3.30;77.10;;;;;;5039168;28;20493;-85
2021/12/23 09:13:24;;;;;;;10.02;7.35;;;3.30;77.10;;;;;;5037154;28;20061;-85
2021/12/23 09:15:56;;;;;;;11.45;7.53;;;3.40;77.20;;;;;;5053256;28;20017;-84
2021/12/23 09:18:25;;;;;;;11.00;7.47;;;3.30;77.10;;;;;;5050507;28;20041;-85
2021/12/23 09:20:54;;;;;;;10.77;7.78;;;3.30;77.10;;;;;;5039162;28;20104;-84
2021/12/23 09:23:29;;;;;;;11.05;7.47;;;3.30;77.10;;;;;;5020920;28;20044;-86
2021/12/23 09:26:22;;;;;;;11.23;7.93;;;3.30;77.20;;;;;;5036845;28;20029;-86
2021/12/23 09:29:13;;;;;;;9.18;7.40;;;3.40;77.30;;;;;;5036421;28;20044;-84
2021/12/23 09:34:29;;;;;;;10.07;7.05;;;3.40;77.20;;;;;;5054061;28;20045;-86
2021/12/23 09:37:08;;;;;;;8.63;6.75;;;3.40;77.20;;;;;;5037193;28;20110;-85
2021/12/23 09:40:03;;;;;;;10.18;6.88;;;3.40;77.30;;;;;;5052564;28;20044;-85
2021/12/23 09:42:33;;;;;;;10.27;7.63;;;3.40;77.20;;;;;;5020953;28;20100;-85
2021/12/23 09:45:10;;;;;;;11.05;7.70;;;3.40;77.30;;;;;;5036497;28;20047;-86
2021/12/23 09:47:45;;;;;;;9.60;6.88;;;3.40;77.40;;;;;;5053142;28;20473;-85
2021/12/23 09:50:17;;;;;;;11.73;7.35;;;3.40;77.30;;;;;;5036326;28;20036;-86
2021/12/23 09:52:47;;;;;;;11.50;7.68;;;3.40;77.30;;;;;;5036885;28;20029;-85
2021/12/23 09:55:19;;;;;;;11.02;7.85;;;3.40;77.30;;;;;;5036257;28;20032;-84
2021/12/23 09:57:52;;;;;;;10.23;7.47;;;3.40;77.30;;;;;;5036684;28;20033;-85
2021/12/23 10:00:27;;;;;;;11.68;7.95;;;3.50;77.40;;;;;;5031282;28;20033;-84
2021/12/23 10:02:55;;;;;;;10.60;7.80;;;3.50;77.30;;;;;;5036934;28;20095;-84
2021/12/23 10:05:25;;;;;;;10.85;7.70;;;3.50;77.30;;;;;;5036594;28;20379;-85
2021/12/23 10:08:05;;;;;;;11.77;7.60;;;3.50;77.30;;;;;;5036232;28;20033;-85
2021/12/23 10:38:20;;;;;;;10.30;7.30;;;3.60;77.50;;;;;;5018763;28;20572;-85
2021/12/23 10:40:54;;;;;;;10.77;7.25;;;3.60;77.60;;;;;;5003668;28;20140;-85
2021/12/23 10:43:25;;;;;;;10.93;7.47;;;3.60;77.50;;;;;;5002234;28;20087;-85
2021/12/23 10:46:03;;;;;;;10.65;7.25;;;3.70;77.50;;;;;;5019383;28;20029;-86
2021/12/23 10:48:34;;;;;;;10.32;7.25;;;3.70;77.50;;;;;;5011617;28;20507;-85
2021/12/23 10:51:06;;;;;;;10.13;7.32;;;3.70;77.50;;;;;;5055717;28;20495;-86
2021/12/23 10:59:09;;;;;;;11.52;7.55;;;3.70;77.60;;;;;;5056050;28;20041;-84
2021/12/23 11:01:56;;;;;;;;;;;3.70;77.50;;;;;;5056644;28;20082;-85
2021/12/23 11:04:24;;;;;;;9.52;6.30;;;3.70;77.50;;;;;;5025831;28;19912;-84
2021/12/23 11:07:13;;;;;;;10.45;7.30;;;3.70;77.40;;;;;;5022453;28;20044;-86
2021/12/23 11:10:04;;;;;;;10.23;7.25;;;3.80;77.60;;;;;;5039694;28;20029;-86
2021/12/23 11:41:19;;;;;;;10.88;7.55;;;4.00;77.50;;;;;;5055195;28;20036;-85
2021/12/23 11:43:53;;;;;;;10.05;6.93;;;4.10;77.50;;;;;;5038383;28;20477;-85
2021/12/23 11:46:45;;;;;;;10.77;7.67;;;4.10;77.50;;;;;;5038257;28;20542;-86
2021/12/23 11:49:16;;;;;;;11.02;7.45;;;4.10;77.60;;;;;;5037891;28;20033;-85
2021/12/23 11:54:44;;;;;;;11.60;8.00;;;4.20;77.60;;;;;;5054794;28;20084;-86
2021/12/23 11:57:49;;;;;;;9.40;6.70;;;4.20;77.60;;;;;;5054830;28;20640;-86
2021/12/23 12:00:20;;;;;;;10.82;7.32;;;4.20;77.60;;;;;;5008132;28;20045;-86
2021/12/23 12:03:08;;;;;;;11.75;7.50;;;4.20;77.40;;;;;;5039468;28;20052;-85
2021/12/23 12:05:36;;;;;;;10.35;7.50;;;4.30;77.50;;;;;;5039308;28;20040;-86
2021/12/23 12:08:19;;;;;;;10.88;7.03;;;4.30;77.50;;;;;;5057939;28;20043;-85
2021/12/23 12:11:15;;;;;;;10.30;7.60;;;4.30;77.60;;;;;;5037869;28;20025;-86
2021/12/23 12:13:45;;;;;;;11.63;7.70;;;4.30;77.60;;;;;;5037276;28;20051;-85
2021/12/23 12:16:31;;;;;;;10.70;7.55;;;4.30;77.50;;;;;;5054317;28;20021;-86
2021/12/23 12:19:10;;;;;;;11.23;7.85;;;4.40;77.60;;;;;;5038390;28;20037;-85
2021/12/23 12:21:47;;;;;;;;;;;;;;;;;;;;;
2021/12/23 12:24:20;;;;;;;10.05;7.25;;;4.40;77.50;;;;;;5050159;28;20036;-85
2021/12/23 12:27:13;;;;;;;11.80;8.15;;;4.40;77.50;;;;;;5038458;28;20041;-85
2021/12/23 12:30:14;;;;;;;12.23;7.82;;;4.40;77.60;;;;;;5054424;28;20091;-86
2021/12/23 12:32:40;;;;;;;11.18;7.65;;;4.40;77.50;;;;;;5036835;28;20039;-84
2021/12/23 12:35:24;;;;;;;10.80;7.82;;;4.50;77.50;;;;;;5021345;28;20462;-85
2021/12/23 12:38:24;;;;;;;10.50;7.68;;;4.50;77.50;;;;;;5054963;28;20524;-85
2021/12/23 12:41:11;;;;;;;11.40;7.60;;;4.50;77.50;;;;;;5036482;28;20037;-85
2021/12/23 12:43:56;;;;;;;10.80;7.15;;;4.50;77.50;;;;;;5037778;28;20424;-85
2021/12/23 12:46:45;;;;;;;11.25;7.82;;;4.60;77.50;;;;;;5037031;28;20111;-85
2021/12/23 12:49:47;;;;;;;11.60;7.72;;;4.60;77.60;;;;;;5053947;28;20025;-85
2021/12/23 12:52:40;;;;;;;10.27;7.43;;;4.60;77.50;;;;;;5038078;28;20025;-86
2021/12/23 12:55:17;;;;;;;9.50;6.85;;;4.60;77.40;;;;;;5038286;28;20068;-85
2021/12/23 12:58:04;;;;;;;11.00;7.95;;;4.60;77.40;;;;;;5037045;28;20132;-85
2021/12/23 13:04:01;;;;;;;11.98;7.93;;;4.70;77.50;;;;;;5048957;28;20033;-83
2021/12/23 13:06:44;;;;;;;11.38;7.43;;;4.70;77.50;;;;;;5020093;28;20128;-86
2021/12/23 13:09:56;;;;;;;11.07;7.63;;;4.70;77.50;;;;;;5010604;28;20055;-84
2021/12/23 13:13:05;;;;;;;11.02;7.70;;;4.80;77.50;;;;;;4932073;29;20051;-84
2021/12/23 13:16:39;;;;;;;;;;;;;;;;;;;;;
2021/12/23 13:19:43;;;;;;;9.45;7.03;;;4.80;77.50;;;;;;4896887;29;20044;-85
2021/12/23 13:22:42;;;;;;;10.07;6.97;;;4.80;77.50;;;;;;4881945;29;20044;-85
2021/12/23 13:25:13;;;;;;;10.60;7.63;;;4.80;77.40;;;;;;4992654;28;20033;-85
2021/12/23 13:28:38;;;;;;;11.38;7.38;;;4.80;77.40;;;;;;5055766;28;20029;-86
2021/12/23 13:31:48;;;;;;;11.02;7.35;;;4.90;77.60;;;;;;5055666;28;20078;-85
2021/12/23 13:34:19;;;;;;;9.75;6.93;;;4.90;77.50;;;;;;5038895;28;20029;-85
2021/12/23 13:37:02;;;;;;;11.48;7.55;;;4.90;77.40;;;;;;5055538;28;20037;-85
2021/12/23 13:40:00;;;;;;;10.55;6.93;;;5.00;77.50;;;;;;5054799;28;20040;-87
2021/12/23 13:42:55;;;;;;;10.90;7.47;;;5.00;77.40;;;;;;5058584;28;20108;-85
2021/12/23 13:46:05;;;;;;;12.52;8.13;;;5.00;77.40;;;;;;5028367;28;20497;-85
2021/12/23 13:48:55;;;;;;;11.60;7.88;;;5.10;77.50;;;;;;5058558;28;20033;-85
2021/12/23 13:51:40;;;;;;;10.82;7.28;;;5.10;77.40;;;;;;5057900;28;20033;-86
2021/12/23 13:54:38;;;;;;;11.52;7.45;;;5.10;77.30;;;;;;5039167;28;20489;-85
2021/12/23 13:57:19;;;;;;;11.15;8.00;;;5.10;77.40;;;;;;5056709;28;20067;-84
2021/12/23 13:59:52;;;;;;;11.18;7.53;;;5.10;77.30;;;;;;5040791;28;20032;-86
2021/12/23 14:02:30;;;;;;;11.65;7.85;;;5.20;77.30;;;;;;5040941;28;20025;-85
2021/12/23 14:05:09;;;;;;;11.57;7.80;;;5.20;77.30;;;;;;5041391;28;20024;-85
2021/12/23 14:07:40;;;;;;;13.50;8.73;;;5.20;77.20;;;;;;5040224;28;20028;-85
2021/12/23 14:10:16;;;;;;;10.85;7.45;;;5.20;77.20;;;;;;5056578;28;20025;-86
2021/12/23 14:12:59;;;;;;;11.32;8.32;;;5.30;77.20;;;;;;5040107;28;20032;-85
2021/12/23 14:15:48;;;;;;;13.05;8.80;;;5.30;77.20;;;;;;5056893;28;20040;-85
2021/12/23 14:24:07;;;;;;;12.45;8.27;;;5.40;77.20;;;;;;5056444;28;20461;-85
2021/12/23 14:26:40;;;;;;;11.43;7.60;;;5.40;77.10;;;;;;5039880;28;20025;-85
2021/12/23 14:29:18;;;;;;;12.32;8.52;;;5.40;77.70;;;;;;5055982;28;20036;-84
2021/12/23 14:31:47;;;;;;;12.38;8.13;;;5.50;77.10;;;;;;5039212;28;20032;-84
2021/12/23 14:34:33;;;;;;;12.98;8.50;;;5.40;77.10;;;;;;5056083;28;20028;-85
2021/12/23 14:37:18;;;;;;;13.10;8.10;;;5.50;77.20;;;;;;5055605;28;20059;-85
2021/12/23 14:39:46;;;;;;;11.93;8.23;;;5.50;77.00;;;;;;5056196;28;20037;-85
2021/12/23 14:42:21;;;;;;;11.55;7.72;;;5.50;76.90;;;;;;5039480;28;20540;-84
2021/12/23 14:45:08;;;;;;;11.82;8.07;;;5.60;77.10;;;;;;5039698;28;20482;-85
2021/12/23 14:47:41;;;;;;;12.25;7.68;;;5.60;77.00;;;;;;5024276;28;20033;-84
2021/12/23 14:50:25;;;;;;;11.48;7.70;;;5.60;77.00;;;;;;5040775;28;20029;-84
2021/12/23 14:53:21;;;;;;;12.98;8.23;;;5.60;76.90;;;;;;5054219;28;20490;-84
2021/12/23 14:56:24;;;;;;;10.63;7.93;;;5.60;76.90;;;;;;5055144;28;20029;-84
2021/12/23 14:59:09;;;;;;;11.57;7.90;;;5.60;76.90;;;;;;5056240;28;20112;-84
2021/12/23 15:01:39;;;;;;;11.45;7.43;;;5.60;76.90;;;;;;5054777;28;20436;-85
2021/12/23 15:04:14;;;;;;;11.77;7.80;;;5.70;76.90;;;;;;5039078;28;20016;-86
2021/12/23 15:07:11;;;;;;;13.25;8.43;;;5.70;76.90;;;;;;5040005;28;20486;-85
2021/12/23 15:09:41;;;;;;;12.25;8.60;;;5.70;76.90;;;;;;5023539;28;20037;-84
2021/12/23 15:12:17;;;;;;;11.95;8.43;;;5.70;76.80;;;;;;5023874;28;20025;-85
2021/12/23 15:14:57;;;;;;;13.13;8.95;;;5.70;76.80;;;;;;5038925;28;20041;-85
2021/12/23 15:17:50;;;;;;;12.73;8.45;;;5.70;76.80;;;;;;5038127;28;20555;-85
2021/12/23 15:20:31;;;;;;;11.55;8.32;;;5.70;76.80;;;;;;5039088;28;20064;-86
2021/12/23 15:23:12;;;;;;;12.02;7.80;;;5.80;76.80;;;;;;5054449;28;20040;-86
2021/12/23 15:25:41;;;;;;;13.18;8.02;;;5.70;77.30;;;;;;5039025;28;20029;-85
2021/12/23 15:28:34;;;;;;;12.00;7.78;;;5.80;76.80;;;;;;5039124;28;20025;-85
2021/12/23 15:31:03;;;;;;;12.65;8.07;;;5.80;76.80;;;;;;5021792;28;20094;-85
2021/12/23 15:33:56;;;;;;;13.10;8.40;;;5.80;76.70;;;;;;5056040;28;20045;-86
2021/12/23 15:36:56;;;;;;;12.60;8.70;;;5.80;76.70;;;;;;5037702;28;20048;-85
2021/12/23 15:39:44;;;;;;;12.20;7.70;;;5.80;76.80;;;;;;5054853;28;20370;-85
2021/12/23 15:42:56;;;;;;;12.02;8.30;;;5.80;76.60;;;;;;5025444;28;20347;-86
2021/12/23 15:45:29;;;;;;;12.20;8.15;;;5.80;76.70;;;;;;5051249;28;20032;-85
2021/12/23 15:48:17;;;;;;;11.68;8.10;;;5.80;76.60;;;;;;5038880;28;20071;-85
2021/12/23 15:50:50;;;;;;;13.02;8.35;;;5.80;76.70;;;;;;5068919;28;20071;-86
2021/12/23 15:53:18;;;;;;;12.40;8.77;;;5.90;76.70;;;;;;5051204;28;20045;-86
2021/12/23 15:56:00;;;;;;;;;;;;;;;;;;;;;
2021/12/23 15:59:11;;;;;;;11.98;8.20;;;5.90;76.70;;;;;;4960804;28;20082;-84
2021/12/23 16:01:56;;;;;;;12.68;8.40;;;5.90;76.60;;;;;;4986911;28;20048;-84
2021/12/23 16:04:33;;;;;;;11.05;7.60;;;5.90;76.60;;;;;;5054076;28;20037;-87
2021/12/23 16:07:17;;;;;;;12.90;8.73;;;5.90;76.60;;;;;;5036693;28;20029;-84
2021/12/23 16:09:56;;;;;;;13.10;8.63;;;5.90;76.60;;;;;;5037370;28;20024;-83
2021/12/23 16:12:45;;;;;;;13.68;8.50;;;6.00;76.70;;;;;;5037723;28;20029;-88
2021/12/23 16:15:55;;;;;;;13.43;8.77;;;6.00;76.80;;;;;;5037101;28;20116;-88
2021/12/23 16:19:30;;;;;;;12.23;7.72;;;6.00;76.70;;;;;;5032334;28;20490;-88
2021/12/23 16:26:24;;;;;;;;;;;;;;;;;;;;;
2021/12/23 16:33:08;;;;;;;12.65;8.65;;;6.00;76.70;;;;;;4971975;28;20043;-89
2021/12/23 16:36:15;;;;;;;12.10;8.00;;;6.00;76.60;;;;;;4978226;28;20105;-89
2021/12/23 16:39:51;;;;;;;;;;;;;;;;;;;;;
2021/12/23 16:42:42;;;;;;;;;;;;;;;;;;;;;
2021/12/23 16:45:38;;;;;;;12.45;8.30;;;6.00;76.60;;;;;;4977835;28;20085;-90
2021/12/23 16:49:12;;;;;;;;;;;;;;;;;;;;;
2021/12/23 16:52:04;;;;;;;11.70;8.35;;;6.00;76.60;;;;;;4976711;28;20101;-88
2021/12/23 17:02:50;;;;;;;12.25;8.45;;;6.00;76.70;;;;;;4899114;29;20047;-89
2021/12/23 17:06:31;;;;;;;;;;;;;;;;;;;;;
2021/12/23 17:10:07;;;;;;;11.05;7.78;;;6.10;76.90;;;;;;4986075;28;20046;-88
2021/12/23 17:16:40;;;;;;;;;;;;;;;;;;;;;
2021/12/23 17:58:49;;;;;;;13.50;9.10;;;6.20;77.00;;;;;;4755710;29;20171;-90
2021/12/23 18:02:13;;;;;;;12.15;8.18;;;6.20;77.10;;;;;;4816630;29;20125;-91
2021/12/23 18:08:38;;;;;;;;;;;;;;;;;;;;;
2021/12/23 18:11:53;;;;;;;12.80;8.98;;;6.20;77.00;;;;;;5056680;28;20067;-91
2021/12/23 18:14:47;;;;;;;;;;;;;;;;;;;;;
2021/12/23 18:18:06;;;;;;;14.27;8.85;;;6.30;76.90;;;;;;5023780;28;20520;-91
2021/12/23 18:24:49;;;;;;;13.20;9.10;;;6.40;77.00;;;;;;5056839;28;20028;-91
2021/12/23 18:28:36;;;;;;;13.68;9.75;;;6.40;77.00;;;;;;5044031;28;20048;-90
2021/12/23 18:31:54;;;;;;;;;;;;;;;;;;;;;
2021/12/23 18:43:08;;;;;;;11.88;8.13;;;6.40;77.00;;;;;;4956798;28;20034;-90
2021/12/23 18:49:15;;;;;;;14.05;9.30;;;6.40;76.90;;;;;;4968026;28;19979;-90
2021/12/23 18:51:52;;;;;;;15.87;9.60;;;6.30;76.80;;;;;;4962901;28;20039;-92
2021/12/23 18:54:29;;;;;;;16.13;10.35;;;6.40;77.00;;;;;;4976503;28;20089;-90
2021/12/23 19:24:20;;;;;;;14.15;9.68;;;6.50;77.00;;;;;;4980559;28;20050;-90
2021/12/23 19:27:35;;;;;;;15.00;9.68;;;6.50;76.90;;;;;;4977977;28;20114;-90
2021/12/23 19:35:07;;;;;;;;;;;;;;;;;;;;;
2021/12/23 19:59:18;;;;;;;13.30;8.55;;;6.60;77.10;;;;;;4904196;29;20055;-91
2021/12/23 20:09:41;;;;;;;11.57;8.35;;;6.60;77.10;;;;;;4955101;29;20054;-88
2021/12/23 20:16:31;;;;;;;;;;;;;;;;;;;;;
2021/12/23 20:31:12;;;;;;;13.05;8.88;;;6.70;77.10;;;;;;4868984;29;20135;-91
2021/12/23 20:34:50;;;;;;;13.63;9.20;;;6.70;77.00;;;;;;4913831;29;20078;-91
2021/12/23 20:48:55;;;;;;;;;;;;;;;;;;;;;
2021/12/23 20:56:19;;;;;;;;;;;;;;;;;;;;;
2021/12/23 20:59:37;;;;;;;12.38;8.85;;;6.80;77.10;;;;;;4937738;29;20131;-92
2021/12/23 21:02:30;;;;;;;13.55;9.13;;;6.90;77.10;;;;;;4939689;28;20129;-89
2021/12/23 21:05:19;;;;;;;13.55;8.75;;;6.90;77.10;;;;;;4976519;28;20069;-91
2021/12/23 21:10:55;;;;;;;13.15;8.90;;;6.90;77.00;;;;;;5052597;28;20112;-91
2021/12/23 21:13:26;;;;;;;14.48;9.13;;;6.90;77.00;;;;;;5036706;28;20064;-87
2021/12/23 21:16:32;;;;;;;;;;;;;;;;;;;;;
2021/12/23 21:19:22;;;;;;;13.07;8.93;;;7.00;77.00;;;;;;5038457;28;20049;-87
2021/12/23 21:30:22;;;;;;;12.38;8.45;;;7.10;76.90;;;;;;5034408;28;20107;-90
2021/12/23 21:36:45;;;;;;;;;;;;;;;;;;;;;
2021/12/23 21:40:02;;;;;;;;;;;;;;;;;;;;;
2021/12/23 21:45:41;;;;;;;11.48;8.30;;;7.20;76.90;;;;;;5027003;28;20033;-89
2021/12/23 21:48:21;;;;;;;13.02;9.25;;;7.20;76.90;;;;;;5037142;28;20123;-89
2021/12/23 21:51:15;;;;;;;11.65;8.95;;;7.20;76.90;;;;;;5055172;28;20179;-89
2021/12/23 21:54:33;;;;;;;;;;;;;;;;;;;;;
2021/12/23 21:57:34;;;;;;;;;;;;;;;;;;;;;
2021/12/23 22:00:55;;;;;;;12.13;7.95;;;7.30;76.90;;;;;;5047228;28;20033;-90
2021/12/23 22:03:34;;;;;;;10.73;7.72;;;7.30;77.00;;;;;;5054673;28;20104;-88
2021/12/23 22:06:24;;;;;;;12.45;8.57;;;7.30;76.90;;;;;;5043741;28;20473;-88
2021/12/23 22:09:13;;;;;;;11.43;8.20;;;7.30;76.90;;;;;;5057799;28;20039;-89
2021/12/23 22:11:49;;;;;;;11.95;9.07;;;7.30;77.00;;;;;;5042215;28;20040;-89
2021/12/23 22:14:37;;;;;;;12.00;8.70;;;7.30;76.90;;;;;;5059954;28;20043;-90
2021/12/23 22:17:33;;;;;;;12.38;8.13;;;7.40;76.90;;;;;;5044302;28;20135;-89
2021/12/23 22:20:28;;;;;;;;;;;;;;;;;;;;;
2021/12/23 22:23:26;;;;;;;;;;;;;;;;;;;;;
2021/12/23 22:26:42;;;;;;;;;;;;;;;;;;;;;
2021/12/23 22:29:26;;;;;;;10.48;7.53;;;7.40;76.90;;;;;;5043414;28;20091;-89
2021/12/23 22:32:20;;;;;;;11.70;8.55;;;7.50;76.90;;;;;;5041867;28;20115;-87
2021/12/23 22:35:14;;;;;;;10.90;8.20;;;7.50;76.90;;;;;;5040446;28;20064;-89
2021/12/23 22:37:51;;;;;;;10.90;8.55;;;7.50;76.80;;;;;;5055671;28;20148;-86
2021/12/23 22:40:31;;;;;;;10.65;7.78;;;7.50;76.90;;;;;;5040542;28;20072;-86
2021/12/23 22:43:08;;;;;;;11.57;8.95;;;7.60;76.90;;;;;;5057043;28;20039;-87
2021/12/23 22:49:21;;;;;;;11.98;9.02;;;7.60;76.90;;;;;;5036173;28;20094;-87
2021/12/23 22:52:25;;;;;;;11.60;8.57;;;7.60;76.90;;;;;;5055869;28;20040;-88
2021/12/23 22:55:17;;;;;;;10.55;7.78;;;7.60;77.00;;;;;;5039590;28;20067;-87
2021/12/23 22:58:01;;;;;;;11.38;8.75;;;7.70;76.90;;;;;;5056357;28;20045;-88
2021/12/23 23:01:07;;;;;;;11.25;8.52;;;7.70;76.90;;;;;;5040704;28;20091;-88
2021/12/23 23:03:55;;;;;;;11.32;8.35;;;7.70;76.90;;;;;;5024143;28;20043;-86
2021/12/23 23:06:25;;;;;;;11.13;8.52;;;7.70;76.80;;;;;;5038653;28;20124;-87
2021/12/23 23:09:20;;;;;;;11.02;8.05;;;7.70;76.80;;;;;;5040569;28;20032;-88
2021/12/23 23:12:07;;;;;;;;;;;;;;;;;;;;;
2021/12/23 23:14:57;;;;;;;;;;;;;;;;;;;;;
2021/12/23 23:17:36;;;;;;;13.23;9.18;;;7.80;76.80;;;;;;5057225;28;20063;-88
2021/12/23 23:20:33;;;;;;;;;;;;;;;;;;;;;
2021/12/23 23:23:22;;;;;;;12.45;8.45;;;7.80;76.90;;;;;;5065669;28;20021;-86
2021/12/23 23:26:19;;;;;;;11.70;8.98;;;7.80;76.80;;;;;;5046746;28;20525;-87
2021/12/23 23:40:21;;;;;;;13.77;9.50;;;7.90;76.80;;;;;;5055587;28;20037;-87